Time;durP1;ratioP1;P1;durP2;ratioP2;P2;SDS_P1;SDS_P2;PMS_P1;PMS_P2;Temp;Humidity;BMP_temperature;BMP_pressure;BME280_temperature;BME280_humidity;BME280_pressure;Samples;Min_cycle;Max_cycle;Signal;HPM_P1;HPM_P2
2022/03/17 00:04:05;;;;;;;175.25;68.13;;;;;;;;;;10448512;28;20344;-67
2022/03/17 00:09:08;;;;;;;161.73;67.97;;;;;;;;;;10452308;28;20052;-68
2022/03/17 00:14:11;;;;;;;178.10;69.85;;;;;;;;;;10450681;28;20072;-68
2022/03/17 00:19:15;;;;;;;164.98;67.60;;;;;;;;;;10432391;28;20049;-68
2022/03/17 00:24:18;;;;;;;167.93;67.15;;;;;;;;;;10462960;28;20064;-68
2022/03/17 00:29:22;;;;;;;160.65;67.10;;;;;;;;;;10473292;28;20240;-68
2022/03/17 00:34:24;;;;;;;152.80;66.47;;;;;;;;;;10479038;28;20055;-67
2022/03/17 00:39:26;;;;;;;166.25;69.57;;;;;;;;;;10480785;28;20040;-66
2022/03/17 00:44:31;;;;;;;162.05;70.47;;;;;;;;;;10480197;28;20232;-68
2022/03/17 00:49:33;;;;;;;153.27;67.80;;;;;;;;;;10480826;28;20060;-68
2022/03/17 00:54:35;;;;;;;168.55;70.57;;;;;;;;;;10473086;28;20045;-66
2022/03/17 00:59:40;;;;;;;168.98;72.55;;;;;;;;;;10465477;28;20058;-68
2022/03/17 01:04:42;;;;;;;157.68;69.82;;;;;;;;;;10451351;28;20053;-68
2022/03/17 01:09:44;;;;;;;155.88;69.32;;;;;;;;;;10469015;28;20045;-68
2022/03/17 01:14:48;;;;;;;149.70;64.18;;;;;;;;;;10440810;28;20037;-68
2022/03/17 01:19:51;;;;;;;151.73;66.55;;;;;;;;;;10478530;28;20352;-67
2022/03/17 01:24:53;;;;;;;155.65;69.90;;;;;;;;;;10475109;28;20057;-67
2022/03/17 01:29:57;;;;;;;158.65;67.40;;;;;;;;;;10439764;28;20080;-68
2022/03/17 01:34:59;;;;;;;155.18;70.95;;;;;;;;;;10475911;28;20075;-67
2022/03/17 01:40:02;;;;;;;165.93;73.28;;;;;;;;;;10476479;28;20048;-68
2022/03/17 01:45:08;;;;;;;166.43;73.15;;;;;;;;;;10476153;28;20060;-67
2022/03/17 01:50:13;;;;;;;157.85;71.88;;;;;;;;;;10476860;28;20033;-68
2022/03/17 01:55:18;;;;;;;159.77;74.45;;;;;;;;;;10491918;28;20037;-67
2022/03/17 02:00:22;;;;;;;155.15;71.50;;;;;;;;;;10477133;28;20064;-68
2022/03/17 02:05:24;;;;;;;144.85;69.80;;;;;;;;;;10476424;28;20053;-68
2022/03/17 02:10:26;;;;;;;137.20;68.03;;;;;;;;;;10457340;28;20057;-68
2022/03/17 02:15:32;;;;;;;134.32;65.13;;;;;;;;;;10454164;28;20358;-67
2022/03/17 02:20:34;;;;;;;131.40;65.95;;;;;;;;;;10477484;28;20094;-67
2022/03/17 02:25:39;;;;;;;132.32;65.65;;;;;;;;;;10476711;28;20065;-68
2022/03/17 02:30:42;;;;;;;141.80;67.10;;;;;;;;;;10476221;28;20045;-68
2022/03/17 02:35:45;;;;;;;137.15;66.75;;;;;;;;;;10475600;28;20052;-68
2022/03/17 02:40:52;;;;;;;137.30;68.05;;;;;;;;;;10476824;28;20068;-68
2022/03/17 02:45:54;;;;;;;136.80;68.55;;;;;;;;;;10475055;28;20056;-67
2022/03/17 02:50:56;;;;;;;120.10;61.72;;;;;;;;;;10476332;28;20278;-66
2022/03/17 02:56:00;;;;;;;133.48;69.55;;;;;;;;;;10475894;28;20105;-67
2022/03/17 03:01:03;;;;;;;123.07;64.78;;;;;;;;;;10473961;28;20052;-68
2022/03/17 03:06:06;;;;;;;128.13;66.97;;;;;;;;;;10451221;28;20060;-67
2022/03/17 03:11:10;;;;;;;128.77;61.22;;;;;;;;;;10434046;28;20357;-68
2022/03/17 03:16:13;;;;;;;129.65;67.10;;;;;;;;;;10447596;28;20052;-68
2022/03/17 03:21:16;;;;;;;133.20;68.85;;;;;;;;;;10441592;28;20041;-66
2022/03/17 03:26:20;;;;;;;135.35;66.93;;;;;;;;;;10434958;28;20073;-67
2022/03/17 03:31:22;;;;;;;133.13;67.35;;;;;;;;;;10473038;28;20048;-68
2022/03/17 03:41:46;;;;;;;120.88;60.92;;;;;;;;;;10441729;28;20073;-67
2022/03/17 03:46:49;;;;;;;127.32;65.30;;;;;;;;;;10453952;28;20053;-69
2022/03/17 03:51:52;;;;;;;123.00;65.10;;;;;;;;;;10472935;28;20041;-67
2022/03/17 03:56:56;;;;;;;116.47;59.83;;;;;;;;;;10472365;28;20036;-67
2022/03/17 04:02:00;;;;;;;109.73;54.83;;;;;;;;;;10459992;28;20095;-66
2022/03/17 04:07:05;;;;;;;114.07;59.63;;;;;;;;;;10473017;28;20091;-67
2022/03/17 04:12:11;;;;;;;125.07;63.67;;;;;;;;;;10480670;28;20074;-66
2022/03/17 04:17:14;;;;;;;118.53;62.55;;;;;;;;;;10487715;28;20100;-66
2022/03/17 04:22:16;;;;;;;120.03;65.28;;;;;;;;;;10472892;28;20095;-67
2022/03/17 04:27:20;;;;;;;111.22;60.10;;;;;;;;;;10472806;28;20152;-67
2022/03/17 04:32:23;;;;;;;124.25;66.63;;;;;;;;;;10450306;28;20352;-68
2022/03/17 04:37:25;;;;;;;112.43;60.03;;;;;;;;;;10431873;28;20057;-66
2022/03/17 04:42:29;;;;;;;115.22;62.17;;;;;;;;;;10430990;28;20092;-67
2022/03/17 04:47:32;;;;;;;119.80;64.07;;;;;;;;;;10431829;28;20061;-67
2022/03/17 04:57:55;;;;;;;120.68;66.28;;;;;;;;;;10450422;28;20049;-67
2022/03/17 05:02:58;;;;;;;115.53;65.40;;;;;;;;;;10462370;28;20061;-67
2022/03/17 05:08:00;;;;;;;119.32;67.97;;;;;;;;;;10471580;28;20049;-68
2022/03/17 05:13:05;;;;;;;117.60;64.72;;;;;;;;;;10471353;28;20049;-67
2022/03/17 05:18:09;;;;;;;118.35;65.88;;;;;;;;;;10485555;28;20114;-67
2022/03/17 05:23:13;;;;;;;109.70;64.30;;;;;;;;;;10478790;28;20056;-68
2022/03/17 05:28:17;;;;;;;110.65;63.33;;;;;;;;;;10448722;28;20095;-67
2022/03/17 05:33:21;;;;;;;106.13;61.88;;;;;;;;;;10437512;28;20045;-68
2022/03/17 05:38:23;;;;;;;103.28;60.25;;;;;;;;;;10437139;28;20068;-68
2022/03/17 05:43:27;;;;;;;103.97;59.83;;;;;;;;;;10437078;28;20057;-68
2022/03/17 05:48:30;;;;;;;99.72;59.70;;;;;;;;;;10437211;28;20071;-68
2022/03/17 05:53:32;;;;;;;93.97;58.20;;;;;;;;;;10437407;28;20069;-68
2022/03/17 05:58:36;;;;;;;101.38;56.88;;;;;;;;;;10448406;28;20048;-68
2022/03/17 06:03:38;;;;;;;84.53;53.63;;;;;;;;;;10476675;28;20052;-68
2022/03/17 06:08:41;;;;;;;91.75;63.35;;;;;;;;;;10475821;28;20247;-68
2022/03/17 06:13:44;;;;;;;82.75;55.97;;;;;;;;;;10467320;28;20053;-68
2022/03/17 06:18:46;;;;;;;71.77;50.73;;;;;;;;;;10477241;28;20259;-68
2022/03/17 06:23:49;;;;;;;72.97;49.22;;;;;;;;;;10477063;28;20052;-68
2022/03/17 06:28:52;;;;;;;70.72;49.35;;;;;;;;;;10473860;28;20055;-68
2022/03/17 06:33:55;;;;;;;70.30;49.17;;;;;;;;;;10474810;28;20320;-67
2022/03/17 06:38:58;;;;;;;70.60;48.90;;;;;;;;;;10476430;28;20055;-68
2022/03/17 06:44:02;;;;;;;66.93;48.45;;;;;;;;;;10473298;28;20056;-68
2022/03/17 06:49:05;;;;;;;68.50;47.85;;;;;;;;;;10475652;28;20048;-68
2022/03/17 06:54:07;;;;;;;;;;;;;;;;;;10476481;28;20049;-68
2022/03/17 06:59:10;;;;;;;58.15;42.97;;;;;;;;;;10458151;28;19925;-68
2022/03/17 07:04:13;;;;;;;59.40;42.38;;;;;;;;;;10434262;28;20057;-68
2022/03/17 07:09:15;;;;;;;57.72;45.53;;;;;;;;;;10438280;28;20056;-68
2022/03/17 07:14:18;;;;;;;;;;;;;;;;;;10455581;28;20071;-67
2022/03/17 07:19:21;;;;;;;56.63;41.65;;;;;;;;;;10474935;28;20203;-67
2022/03/17 07:24:23;;;;;;;55.78;40.65;;;;;;;;;;10474783;28;20340;-67
2022/03/17 07:29:28;;;;;;;51.17;39.63;;;;;;;;;;10473159;28;20288;-68
2022/03/17 07:34:30;;;;;;;48.72;40.15;;;;;;;;;;10473321;28;20417;-68
2022/03/17 07:39:33;;;;;;;51.38;39.45;;;;;;;;;;10473273;28;20332;-69
2022/03/17 07:44:37;;;;;;;56.03;40.63;;;;;;;;;;10470455;28;20348;-69
2022/03/17 07:49:41;;;;;;;55.80;41.35;;;;;;;;;;10468091;28;20293;-68
2022/03/17 07:54:45;;;;;;;55.60;41.13;;;;;;;;;;10472581;28;20052;-68
2022/03/17 07:59:49;;;;;;;46.03;37.53;;;;;;;;;;10472309;28;20052;-68
2022/03/17 08:04:52;;;;;;;45.40;36.53;;;;;;;;;;10470822;28;20049;-69
2022/03/17 08:09:54;;;;;;;67.30;47.08;;;;;;;;;;10472435;28;20355;-69
2022/03/17 08:14:58;;;;;;;47.75;39.60;;;;;;;;;;10472464;28;20060;-67
2022/03/17 08:20:00;;;;;;;55.95;45.25;;;;;;;;;;10454611;28;20061;-67
2022/03/17 08:25:03;;;;;;;58.47;45.17;;;;;;;;;;10473753;28;20064;-67
2022/03/17 08:30:08;;;;;;;48.83;40.85;;;;;;;;;;10473245;28;20056;-68
2022/03/17 08:35:11;;;;;;;38.65;31.35;;;;;;;;;;10471202;28;20053;-68
2022/03/17 08:40:15;;;;;;;37.28;31.40;;;;;;;;;;10473016;28;20056;-68
2022/03/17 08:50:40;;;;;;;35.80;28.52;;;;;;;;;;10484995;28;20064;-68
2022/03/17 08:55:43;;;;;;;40.30;29.38;;;;;;;;;;10479545;28;20273;-69
2022/03/17 09:00:46;;;;;;;34.92;27.40;;;;;;;;;;10471487;28;20049;-68
2022/03/17 09:05:49;;;;;;;37.97;28.80;;;;;;;;;;10478680;28;20290;-68
2022/03/17 09:10:55;;;;;;;39.92;28.85;;;;;;;;;;10478383;28;20266;-69
2022/03/17 09:15:59;;;;;;;35.60;26.50;;;;;;;;;;10492684;28;20052;-69
2022/03/17 09:21:01;;;;;;;31.40;25.55;;;;;;;;;;10477587;28;20041;-68
2022/03/17 09:26:04;;;;;;;35.75;27.35;;;;;;;;;;10478662;28;20411;-69
2022/03/17 09:31:08;;;;;;;33.75;24.27;;;;;;;;;;10476012;28;20040;-68
2022/03/17 09:36:10;;;;;;;40.20;31.08;;;;;;;;;;10450839;28;20053;-68
2022/03/17 09:41:25;;;;;;;44.45;32.28;;;;;;;;;;10460953;28;20076;-67
2022/03/17 09:46:30;;;;;;;37.03;29.15;;;;;;;;;;10477446;28;20060;-69
2022/03/17 09:51:33;;;;;;;37.72;25.23;;;;;;;;;;10478018;28;20251;-68
2022/03/17 09:56:36;;;;;;;92.27;30.17;;;;;;;;;;10457722;28;20061;-67
2022/03/17 10:01:40;;;;;;;42.05;26.67;;;;;;;;;;10474045;28;20064;-68
2022/03/17 10:06:42;;;;;;;41.42;27.52;;;;;;;;;;10476216;28;20316;-67
2022/03/17 10:11:45;;;;;;;39.25;28.52;;;;;;;;;;10476168;28;20217;-67
2022/03/17 10:16:50;;;;;;;42.55;26.08;;;;;;;;;;10474559;28;20347;-68
2022/03/17 10:21:53;;;;;;;44.33;26.20;;;;;;;;;;10472467;28;20217;-67
2022/03/17 10:26:57;;;;;;;37.65;23.38;;;;;;;;;;10466702;28;20041;-67
2022/03/17 10:32:03;;;;;;;53.00;23.85;;;;;;;;;;10476052;28;20037;-68
2022/03/17 10:37:11;;;;;;;35.38;23.13;;;;;;;;;;10445280;28;20378;-66
2022/03/17 10:42:16;;;;;;;56.35;23.05;;;;;;;;;;10477127;28;20059;-67
2022/03/17 10:47:28;;;;;;;39.65;20.92;;;;;;;;;;10474798;28;20052;-67
2022/03/17 10:52:45;;;;;;;54.45;22.95;;;;;;;;;;10475074;28;20060;-67
2022/03/17 10:57:47;;;;;;;46.45;22.95;;;;;;;;;;10473128;28;20064;-68
2022/03/17 11:02:57;;;;;;;36.58;22.45;;;;;;;;;;10474300;28;20060;-67
2022/03/17 11:07:59;;;;;;;31.75;21.48;;;;;;;;;;10487670;28;20401;-67
2022/03/17 11:13:04;;;;;;;35.45;23.90;;;;;;;;;;10472450;28;20041;-66
2022/03/17 11:18:11;;;;;;;40.35;25.52;;;;;;;;;;10475380;28;20053;-67
2022/03/17 11:23:20;;;;;;;29.90;21.70;;;;;;;;;;10471393;28;20060;-67
2022/03/17 11:28:33;;;;;;;30.88;21.10;;;;;;;;;;10434545;28;20245;-66
2022/03/17 11:33:39;;;;;;;40.10;22.42;;;;;;;;;;10472536;28;20049;-67
2022/03/17 11:39:00;;;;;;;41.67;24.55;;;;;;;;;;10486748;28;20041;-69
2022/03/17 11:44:05;;;;;;;43.20;25.48;;;;;;;;;;10467507;28;20368;-67
2022/03/17 11:49:25;;;;;;;39.30;26.45;;;;;;;;;;10469009;28;20060;-68
2022/03/17 11:54:30;;;;;;;41.95;25.75;;;;;;;;;;10472918;28;20056;-68
2022/03/17 11:59:51;;;;;;;46.53;29.52;;;;;;;;;;10470597;28;20041;-68
2022/03/17 12:04:55;;;;;;;43.97;28.60;;;;;;;;;;10483261;28;20064;-68
2022/03/17 12:09:57;;;;;;;45.25;29.13;;;;;;;;;;10471422;28;20201;-68
2022/03/17 12:15:01;;;;;;;42.78;28.88;;;;;;;;;;10459818;28;20341;-68
2022/03/17 12:20:10;;;;;;;42.53;29.92;;;;;;;;;;10452355;28;20297;-68
2022/03/17 12:25:15;;;;;;;42.03;28.90;;;;;;;;;;10469648;28;20045;-68
2022/03/17 12:30:19;;;;;;;49.05;31.52;;;;;;;;;;10478818;28;20052;-68
2022/03/17 12:35:24;;;;;;;49.40;27.67;;;;;;;;;;10473350;28;20289;-68
2022/03/17 12:40:26;;;;;;;44.10;25.80;;;;;;;;;;10481177;28;20052;-67
2022/03/17 12:45:29;;;;;;;36.03;23.13;;;;;;;;;;10480076;28;20053;-68
2022/03/17 12:50:33;;;;;;;29.27;20.48;;;;;;;;;;10473837;28;20080;-68
2022/03/17 12:55:36;;;;;;;36.13;19.37;;;;;;;;;;10475823;28;20243;-68
2022/03/17 13:00:42;;;;;;;40.35;18.90;;;;;;;;;;10474990;28;20095;-68
2022/03/17 13:16:35;;;;;;;29.17;17.40;;;;;;;;;;10493620;28;20067;-67
2022/03/17 13:21:38;;;;;;;29.33;15.60;;;;;;;;;;10465468;28;20052;-67
2022/03/17 13:26:41;;;;;;;25.57;16.67;;;;;;;;;;10476666;28;20078;-67
2022/03/17 13:31:45;;;;;;;36.47;17.80;;;;;;;;;;10479725;28;20340;-67
2022/03/17 13:36:57;;;;;;;22.20;15.63;;;;;;;;;;10477310;28;20059;-68
2022/03/17 13:42:05;;;;;;;25.15;16.00;;;;;;;;;;10451982;28;20076;-67
2022/03/17 13:47:12;;;;;;;29.05;17.42;;;;;;;;;;10462143;28;20094;-68
2022/03/17 13:52:20;;;;;;;28.02;17.27;;;;;;;;;;10492251;28;20045;-68
2022/03/17 13:57:22;;;;;;;33.33;18.33;;;;;;;;;;10490182;28;20056;-68
2022/03/17 14:02:25;;;;;;;28.45;18.27;;;;;;;;;;10472222;28;20099;-67
2022/03/17 14:07:28;;;;;;;29.13;18.30;;;;;;;;;;10445975;28;20063;-70
2022/03/17 14:12:31;;;;;;;28.85;18.85;;;;;;;;;;10475723;28;20071;-68
2022/03/17 14:17:34;;;;;;;28.85;19.10;;;;;;;;;;10475545;28;20045;-68
2022/03/17 14:27:58;;;;;;;29.60;19.40;;;;;;;;;;10476341;28;20049;-68
2022/03/17 14:33:00;;;;;;;32.20;21.00;;;;;;;;;;10475993;28;20052;-67
2022/03/17 14:38:04;;;;;;;28.50;18.45;;;;;;;;;;10474969;28;20262;-67
2022/03/17 14:43:07;;;;;;;26.92;17.48;;;;;;;;;;10476361;28;20310;-69
2022/03/17 14:48:10;;;;;;;33.92;21.27;;;;;;;;;;10475989;28;20049;-68
2022/03/17 14:53:14;;;;;;;35.55;19.85;;;;;;;;;;10469712;28;20044;-68
2022/03/17 14:58:19;;;;;;;33.00;20.08;;;;;;;;;;10475286;28;20044;-67
2022/03/17 15:03:32;;;;;;;49.47;25.48;;;;;;;;;;10474977;28;20045;-67
2022/03/17 15:08:39;;;;;;;28.92;20.38;;;;;;;;;;10455154;28;20252;-69
2022/03/17 15:13:42;;;;;;;35.88;23.05;;;;;;;;;;10481875;28;20048;-67
2022/03/17 15:18:45;;;;;;;36.33;22.55;;;;;;;;;;10472363;28;20053;-68
2022/03/17 15:23:49;;;;;;;44.60;26.15;;;;;;;;;;10473125;28;20060;-67
2022/03/17 15:34:12;;;;;;;36.75;23.20;;;;;;;;;;10456755;28;20297;-68
2022/03/17 15:39:15;;;;;;;43.83;22.58;;;;;;;;;;10471855;28;20252;-68
2022/03/17 15:44:18;;;;;;;38.80;22.17;;;;;;;;;;10433590;28;20061;-67
2022/03/17 15:49:21;;;;;;;36.85;22.77;;;;;;;;;;10470546;28;20056;-67
2022/03/17 15:54:26;;;;;;;36.65;22.33;;;;;;;;;;10470831;28;20279;-69
2022/03/17 15:59:28;;;;;;;40.00;24.30;;;;;;;;;;10433317;28;20053;-67
2022/03/17 16:04:30;;;;;;;46.58;25.92;;;;;;;;;;10448395;28;20343;-69
2022/03/17 16:14:54;;;;;;;44.58;24.13;;;;;;;;;;10475845;28;20048;-68
2022/03/17 16:19:57;;;;;;;54.58;28.52;;;;;;;;;;10474973;28;20130;-67
2022/03/17 16:25:03;;;;;;;47.13;26.35;;;;;;;;;;10471139;28;20371;-69
2022/03/17 16:30:07;;;;;;;40.70;24.92;;;;;;;;;;10487636;28;20037;-68
2022/03/17 16:35:10;;;;;;;46.08;25.30;;;;;;;;;;10474166;28;20057;-68
2022/03/17 16:40:17;;;;;;;49.20;27.13;;;;;;;;;;10443777;28;20053;-68
2022/03/17 16:45:20;;;;;;;51.33;29.13;;;;;;;;;;10441091;28;20107;-67
2022/03/17 16:50:23;;;;;;;89.20;42.05;;;;;;;;;;10473359;28;20067;-68
2022/03/17 16:55:26;;;;;;;69.72;36.72;;;;;;;;;;10457270;28;20053;-67
2022/03/17 17:00:29;;;;;;;109.25;54.13;;;;;;;;;;10458001;28;20103;-68
2022/03/17 17:05:32;;;;;;;72.35;36.38;;;;;;;;;;10469255;28;20523;-67
2022/03/17 17:10:36;;;;;;;57.25;30.77;;;;;;;;;;10438886;28;20037;-69
2022/03/17 17:15:38;;;;;;;63.55;32.60;;;;;;;;;;10459439;28;20053;-69
2022/03/17 17:20:42;;;;;;;76.03;38.35;;;;;;;;;;10447324;28;20048;-68
2022/03/17 17:31:07;;;;;;;63.50;33.38;;;;;;;;;;10479156;28;20252;-69
2022/03/17 17:36:09;;;;;;;75.03;38.67;;;;;;;;;;10462121;28;20041;-70
2022/03/17 17:41:13;;;;;;;64.13;33.88;;;;;;;;;;10480040;28;20049;-70
2022/03/17 17:46:17;;;;;;;54.47;32.72;;;;;;;;;;10450132;28;20037;-68
2022/03/17 17:51:19;;;;;;;67.25;35.55;;;;;;;;;;10452529;28;20045;-69
2022/03/17 17:56:24;;;;;;;56.40;31.60;;;;;;;;;;10478564;28;20045;-69
2022/03/17 18:01:27;;;;;;;53.70;31.00;;;;;;;;;;10479553;28;20049;-67
2022/03/17 18:06:29;;;;;;;50.55;30.65;;;;;;;;;;10479079;28;20056;-68
2022/03/17 18:11:33;;;;;;;58.60;29.80;;;;;;;;;;10476624;28;20044;-68
2022/03/17 18:16:35;;;;;;;54.38;28.67;;;;;;;;;;10478198;28;20275;-68
2022/03/17 18:21:38;;;;;;;53.67;29.52;;;;;;;;;;10441566;28;20041;-68
2022/03/17 18:26:42;;;;;;;51.45;28.23;;;;;;;;;;10444761;28;20056;-68
2022/03/17 18:31:44;;;;;;;44.40;27.20;;;;;;;;;;10475910;28;20057;-67
2022/03/17 18:36:46;;;;;;;45.03;27.00;;;;;;;;;;10477205;28;20071;-66
2022/03/17 18:41:51;;;;;;;46.90;27.17;;;;;;;;;;10478294;28;20064;-68
2022/03/17 18:46:53;;;;;;;49.77;28.13;;;;;;;;;;10453894;28;20050;-69
2022/03/17 18:51:56;;;;;;;41.05;25.17;;;;;;;;;;10449726;28;20056;-68
2022/03/17 18:56:59;;;;;;;45.47;24.40;;;;;;;;;;10477780;28;20112;-67
2022/03/17 19:02:02;;;;;;;46.90;25.23;;;;;;;;;;10438330;28;20348;-68
2022/03/17 19:07:05;;;;;;;48.13;28.42;;;;;;;;;;10475147;28;20244;-68
2022/03/17 19:12:09;;;;;;;45.80;26.92;;;;;;;;;;10475811;28;20072;-67
2022/03/17 19:17:11;;;;;;;56.45;29.88;;;;;;;;;;10440467;28;20053;-67
2022/03/17 19:22:14;;;;;;;52.03;29.80;;;;;;;;;;10473363;28;20056;-68
2022/03/17 19:27:19;;;;;;;60.28;38.22;;;;;;;;;;10474840;28;20037;-67
2022/03/17 19:32:21;;;;;;;57.00;33.67;;;;;;;;;;10473449;28;20068;-67
2022/03/17 19:37:26;;;;;;;48.17;30.35;;;;;;;;;;10471634;28;20056;-69
2022/03/17 19:42:30;;;;;;;52.33;32.60;;;;;;;;;;10475169;28;20118;-67
2022/03/17 19:47:34;;;;;;;44.65;25.90;;;;;;;;;;10473118;28;20111;-67
2022/03/17 19:52:37;;;;;;;41.58;24.98;;;;;;;;;;10475235;28;20052;-69
2022/03/17 19:57:40;;;;;;;49.30;27.45;;;;;;;;;;10457875;28;20053;-68
2022/03/17 20:02:43;;;;;;;44.40;26.88;;;;;;;;;;10465369;28;20044;-66
2022/03/17 20:07:45;;;;;;;44.08;24.58;;;;;;;;;;10459108;28;20057;-69
2022/03/17 20:18:09;;;;;;;53.17;29.20;;;;;;;;;;10433477;28;20059;-68
2022/03/17 20:23:11;;;;;;;46.38;25.58;;;;;;;;;;10460670;28;20069;-68
2022/03/17 20:28:15;;;;;;;45.35;24.65;;;;;;;;;;10471865;28;20044;-68
2022/03/17 20:33:17;;;;;;;44.63;24.40;;;;;;;;;;10468379;28;20049;-68
2022/03/17 20:38:20;;;;;;;44.63;24.38;;;;;;;;;;10472350;28;20037;-70
2022/03/17 20:43:24;;;;;;;47.13;25.23;;;;;;;;;;10472657;28;20060;-67
2022/03/17 20:48:27;;;;;;;39.65;22.85;;;;;;;;;;10455459;28;20080;-67
2022/03/17 20:53:29;;;;;;;45.53;23.30;;;;;;;;;;10440523;28;20053;-68
2022/03/17 20:58:33;;;;;;;46.35;22.40;;;;;;;;;;10477748;28;20072;-67
2022/03/17 21:03:36;;;;;;;44.08;22.52;;;;;;;;;;10440567;28;20046;-67
2022/03/17 21:08:38;;;;;;;42.80;22.10;;;;;;;;;;10467024;28;20060;-67
2022/03/17 21:13:42;;;;;;;40.80;20.75;;;;;;;;;;10464614;28;20041;-67
2022/03/17 21:18:44;;;;;;;42.08;21.48;;;;;;;;;;10468745;28;20049;-68
2022/03/17 21:23:47;;;;;;;33.92;19.13;;;;;;;;;;10452125;28;20076;-68
2022/03/17 21:28:51;;;;;;;44.65;20.75;;;;;;;;;;10467728;28;20060;-67
2022/03/17 21:33:53;;;;;;;48.03;21.58;;;;;;;;;;10465132;28;20062;-68
2022/03/17 21:38:56;;;;;;;44.47;19.75;;;;;;;;;;10458961;28;20283;-68
2022/03/17 21:44:00;;;;;;;33.03;17.17;;;;;;;;;;10439155;28;20052;-69
2022/03/17 21:49:03;;;;;;;30.40;16.63;;;;;;;;;;10451589;28;20054;-68
2022/03/17 21:54:06;;;;;;;35.53;17.30;;;;;;;;;;10457471;28;20083;-69
2022/03/17 21:59:10;;;;;;;33.72;16.30;;;;;;;;;;10468404;28;20256;-68
2022/03/17 22:04:13;;;;;;;26.02;14.73;;;;;;;;;;10459980;28;20123;-68
2022/03/17 22:09:15;;;;;;;28.35;14.07;;;;;;;;;;10449887;28;20051;-69
2022/03/17 22:14:18;;;;;;;27.55;14.10;;;;;;;;;;10477831;28;20063;-68
2022/03/17 22:19:21;;;;;;;26.02;13.98;;;;;;;;;;10466464;28;20049;-68
2022/03/17 22:24:23;;;;;;;27.63;14.10;;;;;;;;;;10462246;28;20061;-68
2022/03/17 22:29:27;;;;;;;27.40;14.30;;;;;;;;;;10460269;28;20289;-68
2022/03/17 22:34:32;;;;;;;25.88;14.25;;;;;;;;;;10455304;28;20045;-68
2022/03/17 22:41:30;;;;;;;29.10;14.30;;;;;;;;;;10460007;28;20284;-68
2022/03/17 22:44:59;;;;;;;25.90;13.32;;;;;;;;;;10434179;28;20069;-68
2022/03/17 22:50:01;;;;;;;26.80;13.98;;;;;;;;;;10433654;28;20053;-66
2022/03/17 22:55:04;;;;;;;33.90;15.63;;;;;;;;;;10456885;28;20041;-68
2022/03/17 23:00:27;;;;;;;25.58;14.35;;;;;;;;;;10475068;28;20044;-67
2022/03/17 23:05:32;;;;;;;22.75;13.52;;;;;;;;;;10474862;28;20067;-67
2022/03/17 23:10:36;;;;;;;22.73;13.55;;;;;;;;;;10473525;28;20052;-68
2022/03/17 23:15:40;;;;;;;26.90;13.27;;;;;;;;;;10474385;28;20083;-68
2022/03/17 23:20:42;;;;;;;23.60;13.70;;;;;;;;;;10475831;28;20259;-68
2022/03/17 23:25:44;;;;;;;26.05;12.85;;;;;;;;;;10473421;28;20321;-67
2022/03/17 23:30:49;;;;;;;25.20;13.50;;;;;;;;;;10471114;28;20360;-67
2022/03/17 23:35:51;;;;;;;23.75;13.07;;;;;;;;;;10434474;28;20155;-67
2022/03/17 23:40:54;;;;;;;25.50;13.23;;;;;;;;;;10459176;28;20280;-67
2022/03/17 23:45:58;;;;;;;24.27;12.35;;;;;;;;;;10473434;28;20079;-67
2022/03/17 23:51:02;;;;;;;23.67;12.45;;;;;;;;;;10473352;28;20336;-67
2022/03/17 23:56:05;;;;;;;21.20;12.23;;;;;;;;;;10473739;28;20056;-67
